Time;durP1;ratioP1;P1;durP2;ratioP2;P2;SDS_P1;SDS_P2;PMS_P1;PMS_P2;Temp;Humidity;BMP_temperature;BMP_pressure;BME280_temperature;BME280_humidity;BME280_pressure;Samples;Min_cycle;Max_cycle;Signal;HPM_P1;HPM_P2
2022/12/06 00:04:37;;;;;;;6.30;5.70;;;;;;;3.27;59.37;100185.53;10433273;28;20239;-35
2022/12/06 00:09:39;;;;;;;5.73;5.10;;;;;;;3.04;60.12;100186.59;10432479;28;20236;-35
2022/12/06 00:14:41;;;;;;;7.13;5.13;;;;;;;3.61;58.82;100193.34;10439973;28;20267;-35
2022/12/06 00:19:43;;;;;;;7.23;4.83;;;;;;;2.46;61.54;100190.28;10438656;28;20232;-35
2022/12/06 00:24:44;;;;;;;5.90;5.17;;;;;;;4.89;55.99;100146.97;10443927;28;20247;-34
2022/12/06 00:29:47;;;;;;;8.70;5.37;;;;;;;4.11;57.43;100133.53;10434520;28;20239;-36
2022/12/06 00:34:48;;;;;;;7.50;5.67;;;;;;;4.92;55.88;100165.28;10442906;28;20322;-35
2022/12/06 00:39:50;;;;;;;6.63;5.30;;;;;;;4.40;56.54;100152.19;10439791;28;20240;-35
2022/12/06 00:44:52;;;;;;;5.37;4.87;;;;;;;4.72;55.95;100151.97;10441187;28;20235;-35
2022/12/06 00:49:54;;;;;;;7.10;5.40;;;;;;;4.53;56.89;100165.22;10433516;28;20227;-35
2022/12/06 00:54:55;;;;;;;6.17;5.17;;;;;;;2.62;60.24;100149.41;10440409;28;20234;-35
2022/12/06 00:59:57;;;;;;;5.70;4.80;;;;;;;4.81;56.89;100154.78;10430944;28;20235;-34
2022/12/06 01:05:00;;;;;;;7.27;5.27;;;;;;;3.70;57.92;100132.63;10443232;28;20242;-34
2022/12/06 01:10:02;;;;;;;5.80;4.90;;;;;;;4.06;57.86;100135.75;10441922;28;20289;-35
2022/12/06 01:15:04;;;;;;;9.13;5.67;;;;;;;2.98;59.98;100152.72;10441306;28;20236;-35
2022/12/06 01:20:06;;;;;;;9.23;5.60;;;;;;;1.95;63.13;100164.38;10441062;28;20235;-34
2022/12/06 01:25:08;;;;;;;9.67;6.50;;;;;;;2.38;62.17;100163.63;10437498;28;20252;-35
2022/12/06 01:30:10;;;;;;;6.60;5.90;;;;;;;2.79;62.22;100163.91;10441034;28;20232;-34
2022/12/06 01:35:12;;;;;;;7.47;6.77;;;;;;;3.60;60.34;100129.94;10438264;28;20232;-35
2022/12/06 01:40:14;;;;;;;7.87;6.97;;;;;;;3.96;59.39;100117.97;10437346;28;20231;-35
2022/12/06 01:45:16;;;;;;;7.77;6.10;;;;;;;4.06;58.16;100106.59;10438218;28;20235;-34
2022/12/06 01:50:23;;;;;;;7.77;5.60;;;;;;;4.40;57.88;100118.56;10437906;28;20232;-35
2022/12/06 01:55:28;;;;;;;7.27;6.20;;;;;;;4.64;57.25;100119.19;10435594;28;20994;-35
2022/12/06 02:00:29;;;;;;;7.37;6.43;;;;;;;4.39;57.23;100092.25;10433372;28;20613;-34
2022/12/06 02:05:31;;;;;;;10.53;7.27;;;;;;;3.55;59.70;100148.84;10425674;28;20277;-35
2022/12/06 02:10:41;;;;;;;7.67;5.80;;;;;;;3.68;59.28;100132.75;10436796;28;20246;-35
2022/12/06 02:15:53;;;;;;;7.00;5.83;;;;;;;4.59;57.68;100114.28;10439160;28;20231;-34
2022/12/06 02:21:02;;;;;;;6.63;5.93;;;;;;;4.94;55.82;100115.56;10416278;28;20238;-34
2022/12/06 02:26:34;;;;;;;8.23;6.47;;;;;;;3.43;58.77;100107.56;10438586;28;20228;-35
2022/12/06 02:31:44;;;;;;;7.93;6.60;;;;;;;3.73;59.71;100133.22;10433583;28;20238;-34
2022/12/06 02:36:55;;;;;;;9.97;7.50;;;;;;;5.17;56.21;100128.56;10432197;28;20235;-35
2022/12/06 02:42:04;;;;;;;7.97;6.83;;;;;;;4.82;56.71;100100.78;10437243;28;20262;-35
2022/12/06 02:47:09;;;;;;;9.53;7.60;;;;;;;4.90;55.95;100111.53;10426809;28;20231;-35
2022/12/06 02:52:12;;;;;;;10.33;7.33;;;;;;;5.01;55.92;100118.50;10424688;28;20932;-35
2022/12/06 02:57:14;;;;;;;10.10;8.10;;;;;;;4.73;56.47;100099.81;10428420;28;20263;-35
2022/12/06 03:02:16;;;;;;;10.80;8.80;;;;;;;3.94;58.48;100119.09;10436440;28;20239;-34
2022/12/06 03:07:36;;;;;;;10.37;8.10;;;;;;;3.91;58.61;100120.19;10428537;28;20228;-35
2022/12/06 03:12:50;;;;;;;11.47;9.63;;;;;;;5.00;56.72;100130.09;10430641;28;20231;-34
2022/12/06 03:18:00;;;;;;;13.93;7.90;;;;;;;4.71;57.04;100110.56;10429658;28;20230;-35
2022/12/06 03:23:05;;;;;;;10.30;7.90;;;;;;;4.82;56.55;100096.31;10435214;28;20270;-34
2022/12/06 03:28:12;;;;;;;10.97;8.50;;;;;;;5.20;55.84;100128.28;10427708;28;20591;-34
2022/12/06 03:33:16;;;;;;;11.60;9.57;;;;;;;5.04;56.47;100124.38;10423905;28;20229;-35
2022/12/06 03:38:29;;;;;;;10.83;8.93;;;;;;;3.76;58.67;100098.53;10425291;28;20905;-36
2022/12/06 03:43:32;;;;;;;10.33;9.00;;;;;;;3.50;61.38;100151.03;10432153;28;20232;-35
2022/12/06 03:48:42;;;;;;;10.17;8.53;;;;;;;2.22;63.12;100126.22;10428000;28;20243;-35
2022/12/06 03:53:52;;;;;;;13.63;9.67;;;;;;;3.72;60.67;100109.53;10431366;28;20231;-35
2022/12/06 03:58:54;;;;;;;11.47;9.37;;;;;;;2.09;63.69;100126.31;10424071;28;20251;-34
2022/12/06 04:03:56;;;;;;;12.07;9.40;;;;;;;4.09;59.50;100069.25;10432102;28;20243;-35
2022/12/06 04:09:51;;;;;;;11.83;10.10;;;;;;;4.84;57.52;100072.31;10434418;28;20232;-35
2022/12/06 04:14:19;;;;;;;12.57;10.03;;;;;;;4.74;57.38;100080.25;10433230;28;20228;-35
2022/12/06 04:19:21;;;;;;;13.23;10.93;;;;;;;4.01;58.36;100052.22;10444887;28;20228;-36
2022/12/06 04:24:23;;;;;;;17.37;10.50;;;;;;;5.26;56.78;100095.88;10430949;28;20637;-35
2022/12/06 04:40:06;;;;;;;11.60;9.37;;;;;;;4.14;59.08;100062.56;10435971;28;20231;-36
2022/12/06 04:45:08;;;;;;;15.27;9.80;;;;;;;4.68;58.37;100071.06;10438143;28;20250;-35
2022/12/06 04:50:10;;;;;;;13.63;10.70;;;;;;;4.98;58.08;100071.03;10434740;28;20870;-35
2022/12/06 04:55:11;;;;;;;14.30;10.40;;;;;;;4.14;59.33;100051.16;10438958;28;20231;-35
2022/12/06 05:00:14;;;;;;;13.50;10.67;;;;;;;4.05;59.80;100057.25;10440848;28;20264;-36
2022/12/06 05:05:16;;;;;;;12.90;10.93;;;;;;;4.35;58.61;100041.31;10432663;28;20236;-35
2022/12/06 05:10:17;;;;;;;14.63;10.83;;;;;;;4.59;58.91;100048.03;10435778;28;20240;-35
2022/12/06 05:15:19;;;;;;;14.13;10.50;;;;;;;2.79;62.48;100037.91;10438968;28;20260;-35
2022/12/06 05:20:21;;;;;;;13.47;10.50;;;;;;;4.66;58.72;100021.78;10437313;28;20239;-35
2022/12/06 05:25:23;;;;;;;14.20;10.27;;;;;;;2.42;64.50;100079.72;10437099;28;20238;-34
2022/12/06 05:30:24;;;;;;;13.27;10.80;;;;;;;3.49;61.49;100034.75;10437143;28;20243;-35
2022/12/06 05:35:26;;;;;;;14.13;11.00;;;;;;;3.43;61.77;100038.75;10431399;28;20243;-35
2022/12/06 05:40:28;;;;;;;13.70;10.67;;;;;;;3.52;61.87;100037.13;10427914;28;20239;-35
2022/12/06 05:45:29;;;;;;;14.20;10.67;;;;;;;4.92;58.80;100032.69;10433495;28;20243;-35
2022/12/06 05:50:32;;;;;;;15.27;10.03;;;;;;;5.36;57.05;100051.56;10423079;28;20320;-35
2022/12/06 05:55:34;;;;;;;13.50;9.90;;;;;;;4.72;58.23;100015.94;10425543;28;20699;-35
2022/12/06 06:00:36;;;;;;;12.70;10.33;;;;;;;4.39;58.89;100016.22;10431016;28;20234;-36
2022/12/06 06:05:44;;;;;;;13.20;10.57;;;;;;;4.17;59.40;100011.97;10436683;28;20826;-36
2022/12/06 06:10:46;;;;;;;14.37;11.43;;;;;;;3.76;59.83;100002.41;10427424;28;20227;-35
2022/12/06 06:15:48;;;;;;;13.90;9.13;;;;;;;3.90;61.39;100065.56;10433771;28;20243;-34
2022/12/06 06:20:53;;;;;;;12.77;11.20;;;;;;;4.15;59.42;100018.38;10426856;28;20628;-35
2022/12/06 06:25:55;;;;;;;11.97;9.33;;;;;;;3.89;60.09;100010.09;10437074;28;20581;-35
2022/12/06 06:31:01;;;;;;;19.73;11.90;;;;;;;4.88;59.16;100055.13;10429736;28;20234;-35
2022/12/06 06:36:04;;;;;;;20.87;16.17;;;;;;;4.44;59.77;100039.66;10441181;28;20236;-36
2022/12/06 06:41:05;;;;;;;28.43;20.23;;;;;;;4.31;59.06;100031.94;10433679;28;20620;-36
2022/12/06 06:46:08;;;;;;;26.20;19.57;;;;;;;4.12;59.72;100027.44;10441376;28;20246;-35
2022/12/06 06:51:11;;;;;;;21.53;15.50;;;;;;;4.90;58.40;100054.03;10436723;28;20239;-35
2022/12/06 06:56:13;;;;;;;14.50;12.03;;;;;;;4.47;59.08;100030.59;10434364;28;20380;-35
2022/12/06 07:01:19;;;;;;;14.10;10.37;;;;;;;4.46;59.12;100034.19;10440818;28;20674;-35
2022/12/06 07:06:21;;;;;;;11.60;10.00;;;;;;;3.96;60.68;100061.53;10428842;28;20228;-35
2022/12/06 07:11:23;;;;;;;13.33;9.67;;;;;;;4.09;60.23;100056.84;10434362;28;20338;-34
2022/12/06 07:16:25;;;;;;;17.37;11.73;;;;;;;5.14;58.11;100071.31;10436024;28;20622;-35
2022/12/06 07:21:26;;;;;;;14.03;10.30;;;;;;;4.06;60.34;100061.59;10433313;28;20892;-35
2022/12/06 07:26:28;;;;;;;13.67;9.30;;;;;;;4.10;59.70;100037.31;10434517;28;20832;-36
2022/12/06 07:31:30;;;;;;;12.60;9.47;;;;;;;3.63;60.93;100047.59;10439979;28;20779;-35
2022/12/06 07:36:32;;;;;;;12.70;9.53;;;;;;;3.86;60.57;100055.38;10437105;28;20242;-35
2022/12/06 07:46:55;;;;;;;13.00;10.13;;;;;;;4.18;60.57;100050.72;10441429;28;20251;-35
2022/12/06 07:51:57;;;;;;;13.40;10.57;;;;;;;3.81;61.41;100053.13;10440574;28;20719;-35
2022/12/06 07:56:59;;;;;;;12.77;9.87;;;;;;;4.31;60.13;100045.19;10436625;28;20239;-35
2022/12/06 08:02:01;;;;;;;13.57;10.03;;;;;;;4.52;58.92;100031.84;10447870;28;20720;-35
2022/12/06 08:07:02;;;;;;;11.87;9.27;;;;;;;4.18;59.64;100015.47;10435966;28;20284;-35
2022/12/06 08:12:05;;;;;;;9.43;7.27;;;;;;;4.70;58.59;100053.19;10441644;28;20727;-36
2022/12/06 08:17:06;;;;;;;9.20;6.50;;;;;;;3.20;61.29;100030.97;10436190;28;20322;-35
2022/12/06 08:22:08;;;;;;;8.97;7.07;;;;;;;3.71;61.25;100076.06;10439114;28;20312;-35
2022/12/06 08:27:10;;;;;;;11.03;8.10;;;;;;;3.54;60.46;100025.44;10434224;28;20228;-36
2022/12/06 08:32:12;;;;;;;9.00;7.70;;;;;;;4.08;59.76;100038.44;10447021;28;20261;-34
2022/12/06 08:37:14;;;;;;;8.37;5.90;;;;;;;4.80;58.09;100047.91;10433733;28;20243;-35
2022/12/06 08:42:15;;;;;;;9.43;6.60;;;;;;;3.69;60.15;100047.09;10441726;28;20231;-35
2022/12/06 08:47:25;;;;;;;9.07;6.50;;;;;;;4.50;58.73;100056.81;10437943;28;20264;-35
2022/12/06 08:52:27;;;;;;;11.43;7.80;;;;;;;4.13;58.17;100034.41;10439908;28;20258;-35
2022/12/06 08:57:30;;;;;;;11.00;7.33;;;;;;;4.81;56.97;100061.97;10437622;28;20243;-43
2022/12/06 09:02:32;;;;;;;10.53;8.10;;;;;;;4.97;56.97;100078.19;10438067;28;20232;-41
2022/12/06 09:07:34;;;;;;;10.13;7.90;;;;;;;4.81;56.87;100072.59;10435384;28;20228;-44
2022/12/06 09:12:35;;;;;;;9.37;7.57;;;;;;;4.64;56.71;100082.91;10436994;28;20243;-42
2022/12/06 09:17:37;;;;;;;8.20;6.90;;;;;;;4.46;57.02;100101.31;10438299;28;20246;-42
2022/12/06 09:22:39;;;;;;;9.20;7.30;;;;;;;4.15;56.99;100089.88;10445853;28;20238;-41
2022/12/06 09:27:40;;;;;;;9.67;7.10;;;;;;;4.81;56.20;100117.66;10440067;28;20259;-43
2022/12/06 09:32:42;;;;;;;10.00;7.80;;;;;;;5.21;55.60;100136.09;10434002;28;20890;-43
2022/12/06 09:37:44;;;;;;;11.60;8.57;;;;;;;4.33;57.08;100136.00;10438139;28;20258;-41
2022/12/06 09:43:13;;;;;;;12.30;9.37;;;;;;;4.59;56.01;100143.44;10438818;28;20603;-41
2022/12/06 09:48:53;;;;;;;9.67;7.90;;;;;;;4.55;56.07;100136.75;10437831;28;20227;-41
2022/12/06 09:54:17;;;;;;;10.23;7.80;;;;;;;4.17;56.07;100111.78;10436290;28;20254;-44
2022/12/06 09:59:55;;;;;;;8.60;7.10;;;;;;;4.45;57.04;100133.25;10429145;28;20232;-41
2022/12/06 10:05:08;;;;;;;10.87;6.93;;;;;;;3.81;57.55;100140.50;10433782;28;20243;-42
2022/12/06 10:10:15;;;;;;;8.50;6.57;;;;;;;4.67;55.95;100129.50;10437926;28;20725;-42
2022/12/06 10:15:28;;;;;;;10.70;7.03;;;;;;;3.70;57.00;100122.03;10438649;28;20240;-40
2022/12/06 10:20:51;;;;;;;9.27;6.33;;;;;;;3.78;56.93;100127.50;10438836;28;20725;-40
2022/12/06 10:26:30;;;;;;;8.10;6.07;;;;;;;5.12;53.66;100119.22;10437744;28;20793;-44
2022/12/06 10:31:50;;;;;;;9.50;6.03;;;;;;;4.91;54.58;100119.38;10452526;28;20246;-43
2022/12/06 10:37:11;;;;;;;7.63;5.90;;;;;;;4.38;55.50;100147.03;10434606;28;20266;-40
2022/12/06 10:42:25;;;;;;;7.23;6.10;;;;;;;4.67;54.63;100126.88;10433783;28;20236;-42
2022/12/06 10:47:37;;;;;;;8.23;5.70;;;;;;;4.67;54.74;100138.28;10429810;28;20236;-43
2022/12/06 10:52:47;;;;;;;7.07;5.63;;;;;;;3.81;55.27;100125.44;10435841;28;20228;-42
2022/12/06 10:58:26;;;;;;;7.90;6.00;;;;;;;5.18;53.92;100160.25;10435582;28;20232;-42
2022/12/06 11:06:21;;;;;;;7.07;5.70;;;;;;;2.98;59.93;100152.72;10618422;27;20676;-63
2022/12/06 11:11:33;;;;;;;6.90;5.67;;;;;;;2.56;59.57;100110.31;10592368;28;20282;-64
2022/12/06 11:16:37;;;;;;;7.97;6.80;;;;;;;2.96;59.70;100118.50;10596057;27;20253;-64
2022/12/06 11:21:47;;;;;;;7.67;5.60;;;;;;;3.35;59.36;100110.00;10585976;28;20234;-65
2022/12/06 11:27:04;;;;;;;7.40;6.20;;;;;;;3.59;58.61;100091.19;10589431;27;20225;-65
2022/12/06 11:32:06;;;;;;;7.40;6.33;;;;;;;3.90;58.04;100094.69;10588166;28;20240;-63
2022/12/06 11:37:15;;;;;;;8.27;6.90;;;;;;;2.76;60.04;100087.53;10590097;27;20248;-65
2022/12/06 11:42:24;;;;;;;9.20;6.97;;;;;;;4.24;57.15;100075.84;10592462;27;20285;-65
2022/12/06 11:47:26;;;;;;;9.07;7.00;;;;;;;4.60;57.41;100080.69;10589226;28;20240;-65
2022/12/06 11:53:06;;;;;;;9.57;7.73;;;;;;;3.95;57.80;100075.75;10590808;28;20293;-64
2022/12/06 11:58:15;;;;;;;7.57;6.50;;;;;;;3.08;59.17;100104.25;10518314;28;20259;-65
2022/12/06 12:03:29;;;;;;;9.83;7.07;;;;;;;4.55;56.05;100062.53;10592524;28;20236;-64
2022/12/06 12:08:31;;;;;;;7.90;6.60;;;;;;;3.72;57.82;100075.13;10590299;27;20343;-65
2022/12/06 12:13:43;;;;;;;7.63;6.80;;;;;;;4.18;57.53;100069.25;10584591;27;20647;-64
2022/12/06 12:19:06;;;;;;;9.40;7.47;;;;;;;4.29;56.52;100064.81;10566829;28;20238;-63
2022/12/06 12:24:46;;;;;;;7.93;6.27;;;;;;;4.69;56.21;100077.19;10562920;28;20930;-63
2022/12/06 12:30:14;;;;;;;8.10;6.40;;;;;;;5.03;55.42;100090.03;10525445;28;20745;-63
2022/12/06 12:35:26;;;;;;;6.70;5.93;;;;;;;4.34;55.73;100076.75;10559494;28;20771;-64
2022/12/06 12:40:40;;;;;;;7.90;6.10;;;;;;;5.29;53.77;100114.16;10561568;28;20237;-63
2022/12/06 12:46:27;;;;;;;6.33;5.40;;;;;;;4.76;54.48;100104.81;10560108;28;20711;-63
2022/12/06 12:51:35;;;;;;;6.20;5.60;;;;;;;4.52;55.07;100102.56;10552753;28;20306;-63
2022/12/06 12:56:36;;;;;;;8.27;6.70;;;;;;;4.57;55.54;100103.00;10561789;28;20232;-64
2022/12/06 13:01:46;;;;;;;8.40;5.87;;;;;;;4.76;55.81;100097.72;10556411;28;20294;-64
2022/12/06 13:06:53;;;;;;;7.57;6.70;;;;;;;5.12;55.33;100103.28;10544288;28;20234;-64
2022/12/06 13:12:27;;;;;;;8.53;6.60;;;;;;;5.19;54.84;100116.00;10558267;28;20730;-62
2022/12/06 13:17:33;;;;;;;7.37;5.83;;;;;;;3.70;57.26;100100.84;10555750;28;20234;-63
2022/12/06 13:22:37;;;;;;;9.77;8.40;;;;;;;4.14;56.77;100081.13;10554028;28;20653;-64
2022/12/06 13:27:44;;;;;;;18.43;12.70;;;;;;;5.29;54.91;100114.16;10554397;28;20773;-63
2022/12/06 13:33:02;;;;;;;7.87;6.90;;;;;;;4.53;56.04;100085.69;10559108;28;20233;-62
2022/12/06 13:38:16;;;;;;;9.87;7.87;;;;;;;5.21;55.24;100111.38;10556967;28;20244;-62
2022/12/06 13:43:26;;;;;;;8.60;7.13;;;;;;;4.71;54.91;100070.78;10556383;28;20313;-63
2022/12/06 13:48:50;;;;;;;8.53;6.83;;;;;;;5.56;54.11;100132.00;10555137;28;20229;-62
2022/12/06 13:54:04;;;;;;;9.00;7.30;;;;;;;4.79;55.00;100103.72;10556548;28;20631;-63
2022/12/06 13:59:11;;;;;;;9.43;7.13;;;;;;;4.70;55.35;100098.25;10556005;28;20261;-62
2022/12/06 14:04:25;;;;;;;9.17;7.40;;;;;;;5.00;55.29;100100.91;10502805;28;20735;-64
2022/12/06 14:09:49;;;;;;;8.37;6.53;;;;;;;4.76;54.94;100083.59;10560155;28;20337;-63
2022/12/06 14:15:01;;;;;;;9.10;7.60;;;;;;;4.32;55.98;100104.34;10561979;28;20225;-63
2022/12/06 14:20:23;;;;;;;7.87;6.53;;;;;;;4.36;56.40;100122.47;10560319;28;20234;-63
2022/12/06 14:25:28;;;;;;;8.30;6.60;;;;;;;4.79;55.76;100109.03;10549698;28;20238;-62
2022/12/06 14:30:30;;;;;;;12.07;9.37;;;;;;;4.46;55.89;100100.44;10558584;28;20295;-64
2022/12/06 14:35:34;;;;;;;14.20;9.67;;;;;;;4.68;56.04;100100.22;10555611;28;20646;-64
2022/12/06 14:46:05;;;;;;;8.77;6.57;;;;;;;3.51;57.46;100089.19;10551687;28;20249;-63
2022/12/06 14:51:22;;;;;;;6.10;5.30;;;;;;;4.48;55.97;100091.41;10554445;28;20245;-64
2022/12/06 14:56:29;;;;;;;7.57;6.43;;;;;;;4.89;55.79;100091.28;10552440;28;20245;-63
2022/12/06 15:01:31;;;;;;;7.73;5.80;;;;;;;4.66;56.34;100107.47;10539084;28;20298;-63
2022/12/06 15:06:53;;;;;;;6.53;5.70;;;;;;;4.24;56.66;100081.16;10557498;28;20287;-68
2022/12/06 15:17:47;;;;;;;8.37;6.10;;;;;;;4.65;56.36;100092.53;10553804;28;20237;-67
2022/12/06 15:22:49;;;;;;;7.33;6.10;;;;;;;5.31;55.01;100093.63;10555608;28;20233;-65
2022/12/06 15:27:50;;;;;;;7.47;6.40;;;;;;;5.08;55.35;100082.47;10556713;28;20229;-66
2022/12/06 15:32:53;;;;;;;8.37;6.63;;;;;;;4.80;55.80;100087.66;10559256;28;20237;-65
2022/12/06 15:37:54;;;;;;;13.77;9.77;;;;;;;5.47;54.53;100103.69;10517867;28;20242;-65
2022/12/06 15:42:56;;;;;;;9.87;7.73;;;;;;;4.79;56.40;100109.84;10508313;28;20230;-65
2022/12/06 15:48:03;;;;;;;12.87;10.37;;;;;;;4.99;55.78;100100.09;10503523;28;20237;-65
2022/12/06 15:53:05;;;;;;;13.73;12.23;;;;;;;5.26;55.68;100106.50;10509741;28;20293;-66
2022/12/06 15:58:07;;;;;;;13.97;11.70;;;;;;;4.78;57.00;100110.84;10507756;28;20239;-67
2022/12/06 16:03:08;;;;;;;17.73;12.07;;;;;;;5.01;55.85;100106.06;10522029;28;20821;-69
2022/12/06 16:08:10;;;;;;;16.80;13.63;;;;;;;5.78;54.51;100140.66;10521859;28;20651;-66
2022/12/06 16:13:22;;;;;;;16.33;11.87;;;;;;;5.54;54.76;100128.66;10521961;28;20652;-66
2022/12/06 16:18:23;;;;;;;13.87;10.00;;;;;;;3.60;57.96;100092.88;10553673;28;20244;-67
2022/12/06 16:29:22;;;;;;;9.70;7.27;;;;;;;3.59;59.62;100125.59;10549270;28;20312;-65
2022/12/06 16:34:24;;;;;;;9.47;8.03;;;;;;;4.64;56.80;100068.81;10556132;27;20225;-67
2022/12/06 16:39:27;;;;;;;13.47;9.70;;;;;;;4.09;57.62;100069.25;10509705;28;20235;-65
2022/12/06 16:44:29;;;;;;;14.03;10.70;;;;;;;4.66;56.85;100080.13;10511552;28;20237;-66
2022/12/06 16:49:30;;;;;;;9.47;7.70;;;;;;;3.87;58.01;100081.72;10502987;28;20239;-67
2022/12/06 16:54:49;;;;;;;11.10;8.53;;;;;;;4.40;56.94;100070.88;10494219;28;20287;-67
2022/12/06 16:59:51;;;;;;;9.67;8.53;;;;;;;3.79;57.93;100063.00;10495066;28;20227;-67
2022/12/06 17:04:59;;;;;;;8.70;7.20;;;;;;;4.47;57.59;100087.06;10508546;28;20714;-67
2022/12/06 17:10:02;;;;;;;8.27;6.57;;;;;;;4.50;57.37;100081.50;10502013;28;20312;-66
2022/12/06 17:15:05;;;;;;;7.53;6.53;;;;;;;4.08;57.86;100070.22;10505405;28;20230;-67
2022/12/06 17:20:10;;;;;;;9.40;7.10;;;;;;;3.78;58.54;100071.91;10497316;28;20231;-64
2022/12/06 17:25:12;;;;;;;10.17;7.87;;;;;;;4.37;57.31;100070.31;10502321;28;20242;-68
2022/12/06 17:30:16;;;;;;;10.00;6.97;;;;;;;3.62;59.37;100090.94;10517735;28;20613;-64
2022/12/06 17:35:18;;;;;;;9.90;6.97;;;;;;;4.84;56.92;100064.34;10504548;28;20231;-64
2022/12/06 17:40:20;;;;;;;9.47;7.03;;;;;;;4.36;57.54;100052.75;10517174;28;20303;-65
2022/12/06 17:45:21;;;;;;;8.47;7.10;;;;;;;4.56;56.98;100048.31;10515308;28;20226;-64
2022/12/06 17:50:26;;;;;;;7.43;6.60;;;;;;;4.45;57.10;100043.13;10516241;28;20323;-64
2022/12/06 17:55:27;;;;;;;7.73;6.90;;;;;;;4.74;56.70;100062.56;10522659;28;20257;-64
2022/12/06 18:00:29;;;;;;;8.47;6.50;;;;;;;4.95;55.88;100058.91;10517767;28;20227;-64
2022/12/06 18:05:33;;;;;;;9.90;7.60;;;;;;;5.26;54.97;100082.59;10516746;28;20242;-63
2022/12/06 18:10:34;;;;;;;10.27;7.57;;;;;;;5.01;55.72;100061.00;10516403;28;20288;-63
2022/12/06 18:15:36;;;;;;;13.10;10.10;;;;;;;5.11;56.07;100093.66;10507563;28;20300;-69
2022/12/06 18:20:38;;;;;;;9.50;7.33;;;;;;;4.31;57.49;100097.34;10510235;28;20241;-68
2022/12/06 18:25:40;;;;;;;8.77;7.13;;;;;;;4.55;56.80;100073.97;10511271;28;20230;-67
2022/12/06 18:30:42;;;;;;;10.00;8.07;;;;;;;5.29;55.54;100090.28;10528794;28;20704;-70
2022/12/06 18:35:44;;;;;;;9.97;7.97;;;;;;;5.31;55.48;100102.41;10551032;28;20234;-66
2022/12/06 18:40:45;;;;;;;13.23;10.27;;;;;;;4.63;56.47;100075.13;10557502;28;20226;-70
2022/12/06 18:45:47;;;;;;;10.87;8.87;;;;;;;4.20;57.32;100059.41;10556661;28;20782;-67
2022/12/06 18:50:49;;;;;;;24.40;14.87;;;;;;;3.71;59.45;100081.38;10553328;28;20763;-68
2022/12/06 18:55:51;;;;;;;16.87;12.63;;;;;;;4.46;58.35;100089.84;10553448;28;20683;-66
2022/12/06 19:00:54;;;;;;;13.73;10.40;;;;;;;3.76;59.21;100076.50;10554735;28;20226;-70
2022/12/06 19:05:57;;;;;;;10.97;9.33;;;;;;;3.38;59.96;100086.78;10554747;28;20229;-67
2022/12/06 19:11:05;;;;;;;12.10;9.00;;;;;;;3.37;60.23;100100.13;10561352;28;20251;-68
2022/12/06 19:16:07;;;;;;;19.80;13.07;;;;;;;3.10;60.44;100081.16;10553407;28;20234;-68
2022/12/06 19:21:09;;;;;;;21.00;14.53;;;;;;;3.32;59.97;100073.22;10553659;28;20238;-69
2022/12/06 19:26:11;;;;;;;17.73;12.37;;;;;;;3.47;60.52;100095.72;10561036;27;20225;-69
2022/12/06 19:31:12;;;;;;;13.50;10.70;;;;;;;4.24;58.52;100057.31;10558808;28;20706;-70
2022/12/06 19:36:23;;;;;;;12.20;10.77;;;;;;;4.15;59.09;100074.88;10558470;28;20261;-69
2022/12/06 19:41:26;;;;;;;13.47;10.50;;;;;;;4.30;57.57;100051.44;10556888;27;20649;-67
2022/12/06 19:46:29;;;;;;;13.90;11.37;;;;;;;4.05;58.14;100049.31;10568582;28;20233;-67
2022/12/06 19:51:35;;;;;;;14.17;10.43;;;;;;;3.69;59.13;100055.03;10567169;28;20252;-69
2022/12/06 19:56:40;;;;;;;15.20;11.27;;;;;;;3.62;59.54;100072.41;10560021;28;20252;-67
2022/12/06 20:01:44;;;;;;;13.23;11.17;;;;;;;4.31;58.29;100062.91;10559753;28;20252;-69
2022/12/06 20:06:46;;;;;;;13.23;10.07;;;;;;;3.79;58.90;100049.78;10556863;28;20245;-68
2022/12/06 20:12:00;;;;;;;11.57;9.20;;;;;;;4.00;58.87;100055.00;10562768;28;20244;-68
2022/12/06 20:17:23;;;;;;;12.30;10.00;;;;;;;4.24;58.81;100059.97;10563983;28;20817;-65
2022/12/06 20:22:24;;;;;;;14.57;10.73;;;;;;;5.26;56.23;100051.59;10555669;28;20316;-66
2022/12/06 20:32:47;;;;;;;17.77;12.57;;;;;;;5.82;55.28;100079.16;10565721;27;20229;-67
2022/12/06 20:37:50;;;;;;;14.90;11.83;;;;;;;6.05;54.53;100100.84;10557395;28;20230;-66
2022/12/06 20:42:51;;;;;;;13.10;10.57;;;;;;;6.18;53.89;100120.94;10559944;28;20298;-68
2022/12/06 20:47:53;;;;;;;15.47;11.17;;;;;;;4.25;57.62;100058.13;10559175;28;20718;-68
2022/12/06 20:52:55;;;;;;;12.57;9.60;;;;;;;4.19;58.38;100100.09;10557349;28;21166;-67
2022/12/06 20:57:57;;;;;;;13.67;10.03;;;;;;;4.36;58.12;100081.91;10561083;28;20694;-66
2022/12/06 21:02:58;;;;;;;12.30;8.67;;;;;;;3.99;58.13;100070.06;10557184;28;20690;-67
2022/12/06 21:08:00;;;;;;;11.47;9.63;;;;;;;4.36;58.06;100061.53;10558712;28;20230;-66
2022/12/06 21:13:02;;;;;;;10.20;8.53;;;;;;;5.69;55.39;100090.09;10561638;27;20230;-67
2022/12/06 21:18:06;;;;;;;13.27;10.17;;;;;;;5.36;55.86;100075.47;10560413;28;20239;-62
2022/12/06 21:23:08;;;;;;;13.17;9.53;;;;;;;4.24;57.34;100043.19;10556764;28;20278;-67
2022/12/06 21:28:10;;;;;;;13.93;10.67;;;;;;;4.89;57.21;100078.03;10562772;28;20233;-68
2022/12/06 21:33:11;;;;;;;11.83;9.43;;;;;;;4.13;58.72;100068.00;10563886;28;20222;-68
2022/12/06 21:38:15;;;;;;;11.73;10.23;;;;;;;3.86;59.66;100087.97;10561650;28;20245;-68
2022/12/06 21:43:17;;;;;;;10.83;9.50;;;;;;;4.05;58.42;100073.97;10561263;28;20232;-67
2022/12/06 21:48:18;;;;;;;13.47;9.00;;;;;;;4.38;57.65;100072.00;10555820;28;20365;-67
2022/12/06 21:53:20;;;;;;;11.13;9.43;;;;;;;4.30;57.74;100070.00;10554829;28;20226;-69
2022/12/06 21:58:22;;;;;;;12.87;9.80;;;;;;;4.81;57.04;100064.63;10500496;28;20226;-69
2022/12/06 22:03:24;;;;;;;12.47;9.50;;;;;;;4.61;57.10;100055.84;10504160;28;21111;-67
2022/12/06 22:08:25;;;;;;;12.30;10.43;;;;;;;4.64;57.07;100074.94;10551538;28;20277;-66
2022/12/06 22:13:27;;;;;;;14.80;11.87;;;;;;;3.76;58.41;100069.41;10559209;28;20241;-66
2022/12/06 22:18:30;;;;;;;14.20;10.90;;;;;;;3.98;58.54;100097.50;10555449;28;20253;-65
2022/12/06 22:23:32;;;;;;;14.37;11.03;;;;;;;4.28;57.42;100093.13;10561567;28;20236;-66
2022/12/06 22:28:34;;;;;;;16.30;12.47;;;;;;;4.81;56.30;100075.25;10553723;28;20237;-69
2022/12/06 22:33:36;;;;;;;14.93;11.00;;;;;;;4.02;58.28;100093.63;10558300;28;20265;-65
2022/12/06 22:38:38;;;;;;;16.47;13.03;;;;;;;4.12;57.97;100082.22;10557852;28;20233;-63
2022/12/06 22:43:39;;;;;;;14.90;12.60;;;;;;;5.00;57.04;100087.66;10559647;28;20226;-68
2022/12/06 22:48:42;;;;;;;15.57;11.97;;;;;;;4.27;58.11;100080.03;10552667;28;20233;-66
2022/12/06 22:53:46;;;;;;;15.47;11.63;;;;;;;3.78;58.66;100074.56;10557365;28;20222;-66
2022/12/06 22:58:54;;;;;;;14.83;12.23;;;;;;;4.06;57.79;100077.47;10555156;28;20240;-64
2022/12/06 23:03:58;;;;;;;31.87;16.93;;;;;;;4.50;56.83;100062.13;10555262;28;20249;-66
2022/12/06 23:09:00;;;;;;;22.03;16.63;;;;;;;4.12;57.39;100061.03;10557127;28;20282;-66
2022/12/06 23:14:03;;;;;;;14.00;12.47;;;;;;;4.12;58.09;100092.81;10555353;28;20262;-68
2022/12/06 23:19:05;;;;;;;15.47;10.77;;;;;;;4.19;58.37;100105.38;10556763;28;20780;-70
2022/12/06 23:24:09;;;;;;;15.70;11.40;;;;;;;3.97;58.04;100085.25;10559465;28;20237;-67
2022/12/06 23:29:12;;;;;;;12.70;10.40;;;;;;;3.99;58.48;100080.66;10501180;28;20699;-67
2022/12/06 23:34:17;;;;;;;12.50;10.33;;;;;;;3.50;58.80;100086.72;10515978;28;20934;-67
2022/12/06 23:39:18;;;;;;;15.00;10.30;;;;;;;4.23;57.68;100063.56;10505373;28;20246;-69
2022/12/06 23:44:20;;;;;;;14.27;10.33;;;;;;;4.26;57.70;100067.78;10515150;28;20239;-69
2022/12/06 23:49:22;;;;;;;13.60;10.60;;;;;;;4.71;56.47;100065.47;10543510;28;20606;-70
2022/12/06 23:54:24;;;;;;;13.13;10.07;;;;;;;4.69;55.92;100048.03;10557427;28;20271;-68
2022/12/06 23:59:25;;;;;;;14.13;12.07;;;;;;;4.66;56.30;100058.91;10554149;28;20236;-68
